createdAt,value
2019-03-01T00:01:59.376Z,81.17
2019-03-01T00:04:42.550Z,80.95
2019-03-01T00:07:48.599Z,81.37
2019-03-01T00:10:28.417Z,81.59
2019-03-01T00:13:20.851Z,81.65
2019-03-01T00:15:57.929Z,81.44
2019-03-01T00:18:40.654Z,81.63
2019-03-01T00:21:54.539Z,81.83
2019-03-01T00:24:46.766Z,82.13
2019-03-01T00:27:58.880Z,82.60
2019-03-01T00:30:41.880Z,82.88
2019-03-01T00:33:46.227Z,83.39
2019-03-01T00:36:41.518Z,83.69
2019-03-01T00:39:21.575Z,83.98
2019-03-01T00:42:17.150Z,84.10
2019-03-01T00:44:48.369Z,83.94
2019-03-01T00:47:18.547Z,84.24
2019-03-01T00:49:48.266Z,84.34
2019-03-01T00:52:18.083Z,84.22
2019-03-01T00:54:47.783Z,84.13
2019-03-01T00:57:17.461Z,83.93
2019-03-01T00:59:47.211Z,83.78
2019-03-01T01:02:17.002Z,83.94
2019-03-01T01:04:47.072Z,84.25
2019-03-01T01:07:16.739Z,84.31
2019-03-01T01:09:46.551Z,84.38
2019-03-01T01:12:16.387Z,84.36
2019-03-01T01:14:46.120Z,84.15
2019-03-01T01:17:15.989Z,84.44
2019-03-01T01:19:45.729Z,84.41
2019-03-01T01:22:15.478Z,84.23
2019-03-01T01:24:45.188Z,84.18
2019-03-01T01:27:15.024Z,84.14
2019-03-01T01:29:44.733Z,83.94
2019-03-01T01:32:14.513Z,83.90
2019-03-01T01:34:45.025Z,84.08
2019-03-01T01:37:14.695Z,84.02
2019-03-01T01:39:44.444Z,83.95
2019-03-01T01:42:14.121Z,84.06
2019-03-01T01:44:43.835Z,84.10
2019-03-01T01:47:13.572Z,83.98
2019-03-01T01:49:43.356Z,83.93
2019-03-01T01:52:13.069Z,84.02
2019-03-01T01:54:42.869Z,84.13
2019-03-01T01:57:12.538Z,84.13
2019-03-01T01:59:42.291Z,84.40
2019-03-01T02:02:11.996Z,84.45
2019-03-01T02:04:41.734Z,84.64
2019-03-01T02:07:11.673Z,84.69
2019-03-01T02:09:41.436Z,84.90
2019-03-01T02:12:11.153Z,84.65
2019-03-01T02:14:40.876Z,84.61
2019-03-01T02:17:10.660Z,84.44
2019-03-01T02:19:40.404Z,84.55
2019-03-01T02:22:10.108Z,84.77
2019-03-01T02:24:39.803Z,84.50
2019-03-01T02:27:22.938Z,84.55
2019-03-01T02:29:52.832Z,83.98
2019-03-01T02:32:35.702Z,84.24
2019-03-01T02:35:09.199Z,84.26
2019-03-01T02:37:39.027Z,84.26
2019-03-01T02:40:12.931Z,84.25
2019-03-01T02:42:42.775Z,84.47
2019-03-01T02:45:23.602Z,84.21
2019-03-01T02:47:53.389Z,84.48
2019-03-01T02:50:23.187Z,84.25
2019-03-01T02:52:52.843Z,84.72
2019-03-01T02:55:24.377Z,84.93
2019-03-01T02:57:54.046Z,84.88
2019-03-01T03:00:29.481Z,84.78
2019-03-01T03:02:59.599Z,84.77
2019-03-01T03:05:29.415Z,84.60
2019-03-01T03:08:00.749Z,84.74
2019-03-01T03:10:30.683Z,84.80
2019-03-01T03:13:06.533Z,85.14
2019-03-01T03:15:38.005Z,85.53
2019-03-01T03:18:08.336Z,85.74
2019-03-01T03:20:38.387Z,85.85
2019-03-01T03:23:08.113Z,85.59
2019-03-01T03:25:38.035Z,85.68
2019-03-01T03:28:07.677Z,85.82
2019-03-01T03:30:37.868Z,85.89
2019-03-01T03:33:07.681Z,85.89
2019-03-01T03:35:37.422Z,85.82
2019-03-01T03:38:07.247Z,85.78
2019-03-01T03:40:37.060Z,85.74
2019-03-01T03:43:06.979Z,85.98
2019-03-01T03:45:36.628Z,86.19
2019-03-01T03:48:06.441Z,86.11
2019-03-01T03:50:36.247Z,86.12
2019-03-01T03:53:06.025Z,85.90
2019-03-01T03:55:35.985Z,85.84
2019-03-01T03:58:06.707Z,85.85
2019-03-01T04:00:36.566Z,85.97
2019-03-01T04:03:06.494Z,85.94
2019-03-01T04:05:36.214Z,86.04
2019-03-01T04:08:06.253Z,86.23
2019-03-01T04:10:36.020Z,86.31
2019-03-01T04:13:05.825Z,86.08
2019-03-01T04:15:35.590Z,86.27
2019-03-01T04:18:05.367Z,86.37
2019-03-01T04:20:35.101Z,85.85
2019-03-01T04:23:04.914Z,86.08
2019-03-01T04:25:34.655Z,85.98
2019-03-01T04:28:04.485Z,86.21
2019-03-01T04:30:34.593Z,86.53
2019-03-01T04:33:04.337Z,86.65
2019-03-01T04:35:34.046Z,86.43
2019-03-01T04:38:03.755Z,86.35
2019-03-01T04:40:33.408Z,86.20
2019-03-01T04:43:03.147Z,86.42
2019-03-01T04:45:32.865Z,86.37
2019-03-01T04:48:02.694Z,86.39
2019-03-01T04:50:32.438Z,86.25
2019-03-01T04:53:02.147Z,86.37
2019-03-01T04:55:31.826Z,86.51
2019-03-01T04:58:01.729Z,86.30
2019-03-01T05:00:32.066Z,86.37
2019-03-01T05:03:01.826Z,86.48
2019-03-01T05:05:31.570Z,86.38
2019-03-01T05:08:01.242Z,86.39
2019-03-01T05:10:30.972Z,86.38
2019-03-01T05:13:00.609Z,86.38
2019-03-01T05:15:30.367Z,86.48
2019-03-01T05:18:00.015Z,86.63
2019-03-01T05:20:31.098Z,86.56
2019-03-01T05:23:01.054Z,86.32
2019-03-01T05:25:30.762Z,86.10
2019-03-01T05:28:00.417Z,86.30
2019-03-01T05:30:30.087Z,86.37
2019-03-01T05:32:59.870Z,86.25
2019-03-01T05:35:29.652Z,86.60
2019-03-01T05:37:59.345Z,86.59
2019-03-01T05:40:29.151Z,86.68
2019-03-01T05:42:58.923Z,86.79
2019-03-01T05:45:30.695Z,86.65
2019-03-01T05:48:01.340Z,86.75
2019-03-01T05:50:31.095Z,87.03
2019-03-01T05:53:00.807Z,87.15
2019-03-01T05:55:30.533Z,87.26
2019-03-01T05:58:21.589Z,87.30
2019-03-01T06:00:52.762Z,87.33
2019-03-01T06:03:35.826Z,87.30
2019-03-01T06:06:05.679Z,87.03
2019-03-01T06:08:42.939Z,86.98
2019-03-01T06:11:19.879Z,87.08
2019-03-01T06:13:56.951Z,87.02
2019-03-01T06:16:51.779Z,87.08
2019-03-01T06:19:35.154Z,87.18
2019-03-01T06:22:30.581Z,87.20
2019-03-01T06:25:32.127Z,87.06
2019-03-01T06:28:09.081Z,86.96
2019-03-01T06:31:01.169Z,86.66
2019-03-01T06:34:18.125Z,86.60
2019-03-01T06:36:55.166Z,86.85
2019-03-01T06:40:13.321Z,86.95
2019-03-01T06:43:07.868Z,87.03
2019-03-01T06:45:59.500Z,86.89
2019-03-01T06:48:33.800Z,86.72
2019-03-01T06:51:08.050Z,86.53
2019-03-01T06:53:37.743Z,86.73
2019-03-01T06:56:07.959Z,86.61
2019-03-01T06:58:37.688Z,86.26
2019-03-01T07:01:09.210Z,86.26
2019-03-01T07:03:38.919Z,85.99
2019-03-01T07:06:08.597Z,85.98
2019-03-01T07:08:38.372Z,86.00
2019-03-01T07:11:08.062Z,85.43
2019-03-01T07:13:37.747Z,84.97
2019-03-01T07:16:07.520Z,84.40
2019-03-01T07:18:37.319Z,84.34
2019-03-01T07:21:07.080Z,84.19
2019-03-01T07:23:37.325Z,84.18
2019-03-01T07:26:07.127Z,84.31
2019-03-01T07:28:36.847Z,84.19
2019-03-01T07:31:07.152Z,83.92
2019-03-01T07:33:36.927Z,83.81
2019-03-01T07:36:06.705Z,83.70
2019-03-01T07:38:36.392Z,83.70
2019-03-01T07:41:06.326Z,83.22
2019-03-01T07:43:36.977Z,83.27
2019-03-01T07:46:06.695Z,82.61
2019-03-01T07:48:36.526Z,82.77
2019-03-01T07:51:06.425Z,82.88
2019-03-01T07:53:40.332Z,83.05
2019-03-01T07:56:07.638Z,82.96
2019-03-01T07:58:37.471Z,82.90
2019-03-01T08:01:07.388Z,82.78
2019-03-01T08:03:37.158Z,82.45
2019-03-01T08:06:06.872Z,82.50
2019-03-01T08:08:38.801Z,82.90
2019-03-01T08:11:08.344Z,83.29
2019-03-01T08:13:38.700Z,83.15
2019-03-01T08:16:08.500Z,83.56
2019-03-01T08:18:40.287Z,83.62
2019-03-01T08:21:10.283Z,83.30
2019-03-01T08:23:41.046Z,83.08
2019-03-01T08:26:10.997Z,82.89
2019-03-01T08:28:41.065Z,83.36
2019-03-01T08:31:10.825Z,83.50
2019-03-01T08:33:43.376Z,83.46
2019-03-01T08:36:12.159Z,83.64
2019-03-01T08:38:41.884Z,83.68
2019-03-01T08:41:11.874Z,83.75
2019-03-01T08:43:44.802Z,83.72
2019-03-01T08:46:12.991Z,83.61
2019-03-01T08:48:42.749Z,84.07
2019-03-01T08:51:12.437Z,85.51
2019-03-01T08:53:42.233Z,85.67
2019-03-01T08:56:14.578Z,85.60
2019-03-01T08:58:43.290Z,85.12
2019-03-01T09:01:20.883Z,84.72
2019-03-01T09:04:02.112Z,84.52
2019-03-01T09:06:31.909Z,84.32
2019-03-01T09:09:02.317Z,84.87
2019-03-01T09:11:32.540Z,84.94
2019-03-01T09:14:02.813Z,85.09
2019-03-01T09:16:32.873Z,84.44
2019-03-01T09:19:02.583Z,84.55
2019-03-01T09:21:32.266Z,84.67
2019-03-01T09:24:02.127Z,85.06
2019-03-01T09:26:31.794Z,85.33
2019-03-01T09:29:01.487Z,85.02
2019-03-01T09:31:31.145Z,85.15
2019-03-01T09:34:00.874Z,85.07
2019-03-01T09:36:32.187Z,84.14
2019-03-01T09:39:01.878Z,83.97
2019-03-01T09:41:31.578Z,84.40
2019-03-01T09:44:03.019Z,84.82
2019-03-01T09:46:32.807Z,84.97
2019-03-01T09:49:02.466Z,84.29
2019-03-01T09:51:32.170Z,84.96
2019-03-01T09:54:02.290Z,84.23
2019-03-01T09:56:32.136Z,84.60
2019-03-01T09:59:01.876Z,84.81
2019-03-01T10:01:31.628Z,84.72
2019-03-01T10:04:01.619Z,84.69
2019-03-01T10:06:37.817Z,84.69
2019-03-01T10:09:02.708Z,84.78
2019-03-01T10:11:32.589Z,84.62
2019-03-01T10:14:02.359Z,84.29
2019-03-01T10:16:32.149Z,84.31
2019-03-01T10:19:01.804Z,84.47
2019-03-01T10:21:31.534Z,84.39
2019-03-01T10:24:01.257Z,84.63
2019-03-01T10:26:30.949Z,84.73
2019-03-01T10:29:00.691Z,84.75
2019-03-01T10:31:30.394Z,84.92
2019-03-01T10:34:00.208Z,84.91
2019-03-01T10:36:30.049Z,85.08
2019-03-01T10:38:59.712Z,85.14
2019-03-01T10:41:29.398Z,85.09
2019-03-01T10:43:59.088Z,85.45
2019-03-01T10:46:28.800Z,85.55
2019-03-01T10:48:58.458Z,85.63
2019-03-01T10:51:28.224Z,85.63
2019-03-01T10:53:58.407Z,85.34
2019-03-01T10:56:28.106Z,85.25
2019-03-01T10:58:58.517Z,85.24
2019-03-01T11:01:28.218Z,85.03
2019-03-01T11:03:58.053Z,85.19
2019-03-01T11:06:27.792Z,85.29
2019-03-01T11:08:57.506Z,84.97
2019-03-01T11:11:27.249Z,84.76
2019-03-01T11:13:57.254Z,84.47
2019-03-01T11:16:26.971Z,84.92
2019-03-01T11:18:56.933Z,85.05
2019-03-01T11:21:26.663Z,85.04
2019-03-01T11:23:56.585Z,85.31
2019-03-01T11:26:26.321Z,85.36
2019-03-01T11:28:56.175Z,85.62
2019-03-01T11:31:26.297Z,85.32
2019-03-01T11:33:55.997Z,85.58
2019-03-01T11:36:25.852Z,85.93
2019-03-01T11:38:56.041Z,86.42
2019-03-01T11:41:25.847Z,86.77
2019-03-01T11:43:56.139Z,86.89
2019-03-01T11:46:26.059Z,87.28
2019-03-01T11:48:55.698Z,87.57
2019-03-01T11:51:25.424Z,88.84
2019-03-01T11:53:55.174Z,90.25
2019-03-01T11:56:25.045Z,90.93
2019-03-01T11:58:54.722Z,91.36
2019-03-01T12:01:24.406Z,91.51
2019-03-01T12:03:54.167Z,91.62
2019-03-01T12:06:23.868Z,91.58
2019-03-01T12:08:53.507Z,91.92
2019-03-01T12:11:23.422Z,92.16
2019-03-01T12:13:53.224Z,92.13
2019-03-01T12:16:23.035Z,91.90
2019-03-01T12:18:52.781Z,92.17
2019-03-01T12:21:22.439Z,93.01
2019-03-01T12:23:52.167Z,93.41
2019-03-01T12:26:21.913Z,93.64
2019-03-01T12:28:51.620Z,93.36
2019-03-01T12:31:21.344Z,92.77
2019-03-01T12:36:20.027Z,92.34
2019-03-01T12:38:49.855Z,92.36
2019-03-01T12:41:19.708Z,92.51
2019-03-01T12:43:49.388Z,92.73
2019-03-01T12:46:19.104Z,92.68
2019-03-01T12:48:48.854Z,92.07
2019-03-01T12:51:18.699Z,91.80
2019-03-01T12:53:48.489Z,90.01
2019-03-01T12:56:18.257Z,88.03
2019-03-01T12:58:48.026Z,87.34
2019-03-01T13:01:17.865Z,87.18
2019-03-01T13:03:47.552Z,87.49
2019-03-01T13:06:17.482Z,86.59
2019-03-01T13:08:47.824Z,86.37
2019-03-01T13:11:18.726Z,85.98
2019-03-01T13:13:48.465Z,84.93
2019-03-01T13:16:18.278Z,84.12
2019-03-01T13:18:51.478Z,83.63
2019-03-01T13:21:19.609Z,83.66
2019-03-01T13:23:49.315Z,83.44
2019-03-01T13:26:19.061Z,83.64
2019-03-01T13:28:48.805Z,83.75
2019-03-01T13:31:18.527Z,83.18
2019-03-01T13:33:48.281Z,83.61
2019-03-01T13:36:18.067Z,83.38
2019-03-01T13:38:47.842Z,83.35
2019-03-01T13:41:17.688Z,83.24
2019-03-01T13:43:47.741Z,83.10
2019-03-01T13:46:17.430Z,82.46
2019-03-01T13:48:47.124Z,82.75
2019-03-01T13:51:17.206Z,82.26
2019-03-01T13:53:49.130Z,83.16
2019-03-01T13:56:19.251Z,83.26
2019-03-01T13:58:49.115Z,82.76
2019-03-01T14:01:18.871Z,81.88
2019-03-01T14:03:48.686Z,81.35
2019-03-01T14:06:18.610Z,81.53
2019-03-01T14:08:48.385Z,80.84
2019-03-01T14:11:21.590Z,80.92
2019-03-01T14:13:51.083Z,81.12
2019-03-01T14:16:21.773Z,81.29
2019-03-01T14:18:51.685Z,81.91
2019-03-01T14:21:21.465Z,81.33
2019-03-01T14:23:51.330Z,81.17
2019-03-01T14:26:21.081Z,81.06
2019-03-01T14:28:50.795Z,81.42
2019-03-01T14:31:20.563Z,81.91
2019-03-01T14:33:51.660Z,81.99
2019-03-01T14:40:15.787Z,80.42
2019-03-01T14:42:50.131Z,80.63
2019-03-01T14:45:28.846Z,80.28
2019-03-01T14:47:58.756Z,80.05
2019-03-01T14:50:33.870Z,79.20
2019-03-01T14:53:01.915Z,79.42
2019-03-01T14:55:52.393Z,79.63
2019-03-01T15:02:18.021Z,79.15
2019-03-01T15:04:47.798Z,79.47
2019-03-01T15:07:17.453Z,78.95
2019-03-01T15:09:47.228Z,78.98
2019-03-01T15:12:20.893Z,78.82
2019-03-01T15:14:49.975Z,79.53
2019-03-01T15:17:21.899Z,79.23
2019-03-01T15:19:51.637Z,79.05
2019-03-01T15:22:21.429Z,78.77
2019-03-01T15:24:51.512Z,78.38
2019-03-01T15:27:21.299Z,78.43
2019-03-01T15:29:51.015Z,77.74
2019-03-01T15:32:20.677Z,78.00
2019-03-01T15:34:50.550Z,77.76
2019-03-01T15:37:20.320Z,77.43
2019-03-01T15:39:51.303Z,77.51
2019-03-01T15:42:21.712Z,77.59
2019-03-01T15:44:51.495Z,77.47
2019-03-01T15:47:23.906Z,77.02
2019-03-01T15:49:52.581Z,76.40
2019-03-01T15:52:22.266Z,76.14
2019-03-01T15:54:51.970Z,76.45
2019-03-01T15:57:21.615Z,76.17
2019-03-01T15:59:51.396Z,75.66
2019-03-01T16:02:21.093Z,75.79
2019-03-01T16:04:50.962Z,75.21
2019-03-01T16:07:20.675Z,74.22
2019-03-01T16:09:50.555Z,74.24
2019-03-01T16:12:20.367Z,74.50
2019-03-01T16:14:50.155Z,74.61
2019-03-01T16:17:21.895Z,74.67
2019-03-01T16:19:53.430Z,74.21
2019-03-01T16:22:22.836Z,74.39
2019-03-01T16:24:52.539Z,74.27
2019-03-01T16:27:22.348Z,73.99
2019-03-01T16:29:52.024Z,74.28
2019-03-01T16:32:21.722Z,76.07
2019-03-01T16:34:51.412Z,77.30
2019-03-01T16:37:22.727Z,78.50
2019-03-01T16:39:56.035Z,79.58
2019-03-01T16:42:24.049Z,80.23
2019-03-01T16:44:53.762Z,80.17
2019-03-01T16:47:23.422Z,80.37
2019-03-01T16:49:53.190Z,80.38
2019-03-01T16:52:22.935Z,80.51
2019-03-01T16:54:54.715Z,79.92
2019-03-01T16:57:24.102Z,79.26
2019-03-01T16:59:53.833Z,78.88
2019-03-01T17:02:23.486Z,79.13
2019-03-01T17:04:53.204Z,78.23
2019-03-01T17:07:25.067Z,77.89
2019-03-01T17:09:55.044Z,78.09
2019-03-01T17:12:24.703Z,78.21
2019-03-01T17:14:54.467Z,78.39
2019-03-01T17:17:24.211Z,77.66
2019-03-01T17:19:53.879Z,77.97
2019-03-01T17:22:26.404Z,78.04
2019-03-01T17:24:56.371Z,77.64
2019-03-01T17:27:26.124Z,75.59
2019-03-01T17:29:55.783Z,75.20
2019-03-01T17:32:25.605Z,74.75
2019-03-01T17:34:55.317Z,73.63
2019-03-01T17:37:25.869Z,73.51
2019-03-01T17:39:57.691Z,73.50
2019-03-01T17:42:27.503Z,73.71
2019-03-01T17:44:57.808Z,73.07
2019-03-01T17:47:27.632Z,72.67
2019-03-01T17:49:57.350Z,72.30
2019-03-01T17:52:30.550Z,71.71
2019-03-01T17:55:01.511Z,72.01
2019-03-01T17:57:33.117Z,70.68
2019-03-01T18:00:02.863Z,71.03
2019-03-01T18:02:32.596Z,71.73
2019-03-01T18:05:02.348Z,71.31
2019-03-01T18:07:32.131Z,71.61
2019-03-01T18:10:01.846Z,71.19
2019-03-01T18:12:31.708Z,70.57
2019-03-01T18:15:01.365Z,71.33
2019-03-01T18:17:32.988Z,70.36
2019-03-01T18:20:02.811Z,69.93
2019-03-01T18:22:33.550Z,69.56
2019-03-01T18:25:03.494Z,69.38
2019-03-01T18:27:33.216Z,70.17
2019-03-01T18:30:02.990Z,70.64
2019-03-01T18:32:32.701Z,69.70
2019-03-01T18:35:02.441Z,70.21
2019-03-01T18:37:32.166Z,69.96
2019-03-01T18:40:01.919Z,69.76
2019-03-01T18:42:34.303Z,70.42
2019-03-01T18:45:03.553Z,70.12
2019-03-01T18:47:34.459Z,70.93
2019-03-01T18:50:06.199Z,71.29
2019-03-01T18:52:35.911Z,70.74
2019-03-01T18:55:09.061Z,71.09
2019-03-01T18:57:39.525Z,71.23
2019-03-01T19:00:13.921Z,70.83
2019-03-01T19:02:43.806Z,70.52
2019-03-01T19:05:13.523Z,70.67
2019-03-01T19:07:43.208Z,70.84
2019-03-01T19:10:19.737Z,71.06
2019-03-01T19:12:49.657Z,70.75
2019-03-01T19:15:19.463Z,71.18
2019-03-01T19:17:49.223Z,71.44
2019-03-01T19:20:41.069Z,71.65
2019-03-01T19:23:09.475Z,71.95
2019-03-01T19:25:39.218Z,72.00
2019-03-01T19:28:08.931Z,72.63
2019-03-01T19:30:38.785Z,72.49
2019-03-01T19:33:08.778Z,72.44
2019-03-01T19:35:39.137Z,72.40
2019-03-01T19:38:08.901Z,72.70
2019-03-01T19:40:38.673Z,72.74
2019-03-01T19:43:10.206Z,73.02
2019-03-01T19:45:40.792Z,73.08
2019-03-01T19:48:11.427Z,73.32
2019-03-01T19:50:41.080Z,73.37
2019-03-01T19:53:10.836Z,72.92
2019-03-01T19:55:40.598Z,72.93
2019-03-01T19:58:11.952Z,73.19
2019-03-01T20:00:42.445Z,72.79
2019-03-01T20:03:13.477Z,72.89
2019-03-01T20:05:43.550Z,72.77
2019-03-01T20:08:13.297Z,72.56
2019-03-01T20:10:43.075Z,72.68
2019-03-01T20:13:16.474Z,72.90
2019-03-01T20:15:46.225Z,73.04
2019-03-01T20:18:16.349Z,72.45
2019-03-01T20:20:46.073Z,72.42
2019-03-01T20:23:15.721Z,72.24
2019-03-01T20:25:47.643Z,72.30
2019-03-01T20:28:16.851Z,71.92
2019-03-01T20:30:47.285Z,71.01
2019-03-01T20:33:17.092Z,70.99
2019-03-01T20:35:46.838Z,70.75
2019-03-01T20:38:16.609Z,70.51
2019-03-01T20:40:46.352Z,70.28
2019-03-01T20:43:16.149Z,70.08
2019-03-01T20:45:45.809Z,70.06
2019-03-01T20:48:15.560Z,69.80
2019-03-01T20:50:47.648Z,69.69
2019-03-01T20:53:16.706Z,69.68
2019-03-01T20:55:46.344Z,69.83
2019-03-01T20:58:16.093Z,69.47
2019-03-01T21:00:45.886Z,69.40
2019-03-01T21:03:15.648Z,69.22
2019-03-01T21:05:45.390Z,69.32
2019-03-01T21:08:15.126Z,68.92
2019-03-01T21:10:46.848Z,68.85
2019-03-01T21:13:16.214Z,69.05
2019-03-01T21:15:46.045Z,69.25
2019-03-01T21:18:15.706Z,69.26
2019-03-01T21:20:45.473Z,69.17
2019-03-01T21:23:15.899Z,69.11
2019-03-01T21:25:45.757Z,68.88
2019-03-01T21:28:15.483Z,68.91
2019-03-01T21:30:45.660Z,68.98
2019-03-01T21:33:15.659Z,69.11
2019-03-01T21:35:47.749Z,69.10
2019-03-01T21:38:16.811Z,69.14
2019-03-01T21:40:47.016Z,68.83
2019-03-01T21:43:16.780Z,69.01
2019-03-01T21:45:46.582Z,69.32
2019-03-01T21:48:16.378Z,69.49
2019-03-01T21:50:46.076Z,69.34
2019-03-01T21:53:15.807Z,68.81
2019-03-01T21:55:45.497Z,69.29
2019-03-01T21:58:15.146Z,68.84
2019-03-01T22:00:44.936Z,68.96
2019-03-01T22:03:14.675Z,69.26
2019-03-01T22:05:45.284Z,69.33
2019-03-01T22:08:15.903Z,69.27
2019-03-01T22:10:45.578Z,69.30
2019-03-01T22:13:15.288Z,69.32
2019-03-01T22:15:44.908Z,69.60
2019-03-01T22:18:14.676Z,69.72
2019-03-01T22:20:44.829Z,69.79
2019-03-01T22:23:16.477Z,69.66
2019-03-01T22:25:46.323Z,69.12
2019-03-01T22:28:15.997Z,68.94
2019-03-01T22:30:45.731Z,68.77
2019-03-01T22:33:17.359Z,68.92
2019-03-01T22:35:46.992Z,69.03
2019-03-01T22:38:16.679Z,69.24
2019-03-01T22:40:46.424Z,69.34
2019-03-01T22:43:16.096Z,69.43
2019-03-01T22:45:48.915Z,69.19
2019-03-01T22:48:17.215Z,69.26
2019-03-01T22:50:47.004Z,69.43
2019-03-01T22:53:16.639Z,69.54
2019-03-01T22:55:46.316Z,69.68
2019-03-01T22:58:16.078Z,69.84
2019-03-01T23:01:03.537Z,69.95
2019-03-01T23:03:33.440Z,70.09
2019-03-01T23:06:03.233Z,69.97
2019-03-01T23:08:35.521Z,70.09
2019-03-01T23:11:04.585Z,70.33
2019-03-01T23:13:34.300Z,70.34
2019-03-01T23:16:04.070Z,70.52
2019-03-01T23:18:33.812Z,70.85
2019-03-01T23:21:03.562Z,71.01
2019-03-01T23:23:33.213Z,71.20
2019-03-01T23:26:02.910Z,71.48
2019-03-01T23:28:32.570Z,71.70
2019-03-01T23:31:03.635Z,71.81
2019-03-01T23:33:34.261Z,72.09
2019-03-01T23:36:03.997Z,72.34
2019-03-01T23:38:33.705Z,72.67
2019-03-01T23:41:03.453Z,72.87
2019-03-01T23:43:33.208Z,73.30
2019-03-01T23:46:02.868Z,73.55
2019-03-01T23:48:32.580Z,73.61
2019-03-01T23:51:02.249Z,73.96
2019-03-01T23:53:34.088Z,74.02
2019-03-01T23:56:03.457Z,74.30
2019-03-01T23:58:33.158Z,74.29
